createdAt,value
2016-09-11T00:00:10.724Z,23.47
2016-09-11T00:00:32.460Z,23.57
2016-09-11T00:00:58.956Z,23.65
2016-09-11T00:01:28.438Z,23.73
2016-09-11T00:02:26.217Z,23.38
2016-09-11T00:02:47.960Z,23.35
2016-09-11T00:03:40.958Z,23.48
2016-09-11T00:04:03.856Z,23.59
2016-09-11T00:04:25.622Z,23.48
2016-09-11T00:04:52.114Z,23.25
2016-09-11T00:05:13.833Z,23.25
2016-09-11T00:06:14.551Z,23.56
2016-09-11T00:06:38.962Z,23.60
2016-09-11T00:07:31.954Z,23.63
2016-09-11T00:08:52.300Z,23.24
2016-09-11T00:09:45.337Z,23.08
2016-09-11T00:10:14.432Z,23.04
2016-09-11T00:10:37.183Z,23.17
2016-09-11T00:10:58.923Z,23.26
2016-09-11T00:11:20.665Z,23.21
2016-09-11T00:11:43.394Z,23.05
2016-09-11T00:12:34.742Z,22.82
2016-09-11T00:13:02.242Z,22.98
2016-09-11T00:13:24.118Z,23.03
2016-09-11T00:13:46.838Z,23.05
2016-09-11T00:14:09.625Z,23.05
2016-09-11T00:14:32.295Z,22.78
2016-09-11T00:14:54.083Z,22.60
2016-09-11T00:15:16.819Z,22.61
2016-09-11T00:15:39.519Z,22.72
2016-09-11T00:16:01.632Z,22.86
2016-09-11T00:16:32.888Z,23.09
2016-09-11T00:17:24.175Z,23.02
2016-09-11T00:18:13.423Z,22.60
2016-09-11T00:18:39.964Z,22.54
2016-09-11T00:19:04.863Z,22.58
2016-09-11T00:19:31.155Z,22.62
2016-09-11T00:19:53.887Z,22.73
2016-09-11T00:20:19.385Z,22.98
2016-09-11T00:20:47.853Z,23.08
2016-09-11T00:21:14.366Z,23.20
2016-09-11T00:21:37.115Z,23.12
2016-09-11T00:21:58.834Z,22.90
2016-09-11T00:22:20.556Z,22.74
2016-09-11T00:22:43.282Z,22.67
2016-09-11T00:23:06.031Z,22.59
2016-09-11T00:23:27.746Z,22.54
2016-09-11T00:23:49.549Z,22.55
2016-09-11T00:24:20.895Z,22.70
2016-09-11T00:24:47.388Z,22.89
2016-09-11T00:25:18.459Z,23.10
2016-09-11T00:25:45.964Z,23.28
2016-09-11T00:26:13.493Z,23.24
2016-09-11T00:26:35.207Z,23.30
2016-09-11T00:27:28.274Z,23.30
2016-09-11T00:27:50.120Z,23.43
2016-09-11T00:28:12.828Z,23.57
2016-09-11T00:28:36.582Z,23.45
2016-09-11T00:29:25.785Z,23.11
2016-09-11T00:29:53.353Z,23.00
2016-09-11T00:30:15.132Z,23.03
2016-09-11T00:30:37.824Z,23.12
2016-09-11T00:31:04.397Z,23.16
2016-09-11T00:31:26.120Z,23.05
2016-09-11T00:32:02.150Z,22.78
2016-09-11T00:32:33.932Z,22.84
2016-09-11T00:33:27.942Z,22.83
2016-09-11T00:33:50.659Z,23.02
2016-09-11T00:34:46.630Z,23.06
2016-09-11T00:35:09.373Z,22.97
2016-09-11T00:35:31.114Z,22.88
2016-09-11T00:35:58.603Z,22.75
2016-09-11T00:36:53.604Z,22.53
2016-09-11T00:37:20.105Z,22.47
2016-09-11T00:37:51.407Z,22.51
2016-09-11T00:38:16.143Z,22.58
2016-09-11T00:38:42.781Z,22.65
2016-09-11T00:39:09.276Z,22.72
2016-09-11T00:40:09.878Z,22.72
2016-09-11T00:40:41.158Z,22.67
2016-09-11T00:41:09.455Z,22.83
2016-09-11T00:41:35.983Z,23.03
2016-09-11T00:41:59.977Z,22.89
2016-09-11T00:42:31.241Z,22.76
2016-09-11T00:43:03.525Z,22.66
2016-09-11T00:43:31.006Z,22.68
2016-09-11T00:43:56.566Z,22.69
2016-09-11T00:44:18.297Z,22.66
2016-09-11T00:45:12.563Z,22.82
2016-09-11T00:45:43.853Z,22.79
2016-09-11T00:46:40.883Z,22.34
2016-09-11T00:47:07.412Z,22.14
2016-09-11T00:48:10.812Z,21.90
2016-09-11T00:50:19.489Z,22.24
2016-09-11T00:50:52.698Z,22.48
2016-09-11T00:51:19.215Z,22.57
2016-09-11T00:52:07.429Z,22.33
2016-09-11T00:53:04.269Z,22.36
2016-09-11T00:54:27.689Z,22.40
2016-09-11T00:54:51.976Z,22.40
2016-09-11T00:55:18.549Z,22.37
2016-09-11T00:56:11.585Z,22.27
2016-09-11T00:56:33.288Z,22.12
2016-09-11T00:56:59.794Z,21.93
2016-09-11T00:57:21.537Z,21.81
2016-09-11T00:57:48.034Z,21.79
2016-09-11T00:58:17.305Z,21.83
2016-09-11T00:58:41.040Z,21.88
2016-09-11T00:59:03.766Z,22.01
2016-09-11T00:59:29.288Z,22.15
2016-09-11T01:00:24.989Z,22.59
2016-09-11T01:00:47.708Z,22.62
2016-09-11T01:01:17.940Z,22.66
2016-09-11T01:01:39.641Z,22.65
2016-09-11T01:02:06.329Z,22.64
2016-09-11T01:02:28.245Z,22.61
2016-09-11T01:02:54.917Z,22.59
2016-09-11T01:03:44.151Z,22.44
2016-09-11T01:04:06.889Z,22.41
2016-09-11T01:04:57.801Z,22.41
2016-09-11T01:05:50.873Z,22.38
2016-09-11T01:06:12.618Z,22.29
2016-09-11T01:06:34.360Z,22.32
2016-09-11T01:07:22.568Z,22.60
2016-09-11T01:07:49.083Z,22.70
2016-09-11T01:08:20.354Z,22.69
2016-09-11T01:08:46.828Z,22.56
2016-09-11T01:09:08.559Z,22.48
2016-09-11T01:09:30.349Z,22.43
2016-09-11T01:09:54.029Z,22.43
2016-09-11T01:10:17.766Z,22.56
2016-09-11T01:11:11.461Z,22.82
2016-09-11T01:11:33.139Z,22.86
2016-09-11T01:12:35.715Z,22.73
2016-09-11T01:12:58.437Z,22.72
2016-09-11T01:13:21.246Z,22.81
2016-09-11T01:13:48.656Z,22.90
2016-09-11T01:14:41.737Z,23.03
2016-09-11T01:15:09.690Z,22.73
2016-09-11T01:15:36.195Z,22.55
2016-09-11T01:16:05.532Z,22.38
2016-09-11T01:16:32.039Z,22.32
2016-09-11T01:16:58.354Z,22.29
2016-09-11T01:17:20.086Z,22.33
2016-09-11T01:17:44.360Z,22.18
2016-09-11T01:18:38.374Z,22.01
2016-09-11T01:19:01.096Z,22.17
2016-09-11T01:19:54.957Z,22.40
2016-09-11T01:20:21.535Z,22.32
2016-09-11T01:21:14.537Z,22.25
2016-09-11T01:22:07.679Z,22.42
2016-09-11T01:22:30.392Z,22.36
2016-09-11T01:22:56.874Z,22.26
2016-09-11T01:23:26.061Z,22.21
2016-09-11T01:24:21.055Z,22.32
2016-09-11T01:24:43.782Z,22.34
2016-09-11T01:25:36.927Z,22.24
2016-09-11T01:26:03.228Z,22.19
2016-09-11T01:26:27.498Z,22.31
2016-09-11T01:26:52.844Z,22.39
2016-09-11T01:27:20.356Z,22.18
2016-09-11T01:27:47.072Z,22.17
2016-09-11T01:28:16.174Z,22.24
2016-09-11T01:28:40.696Z,22.34
2016-09-11T01:30:05.618Z,22.49
2016-09-11T01:30:30.133Z,22.59
2016-09-11T01:30:54.512Z,22.48
2016-09-11T01:31:21.347Z,22.58
2016-09-11T01:31:49.654Z,22.58
2016-09-11T01:32:45.324Z,21.94
2016-09-11T01:33:09.049Z,21.77
2016-09-11T01:34:08.934Z,21.78
2016-09-11T01:34:32.685Z,21.73
2016-09-11T01:34:59.216Z,21.62
2016-09-11T01:35:59.712Z,21.43
2016-09-11T01:36:21.490Z,21.41
2016-09-11T01:36:43.213Z,21.44
2016-09-11T01:37:09.866Z,21.45
2016-09-11T01:37:32.605Z,21.46
2016-09-11T01:37:54.303Z,21.52
2016-09-11T01:38:17.038Z,21.44
2016-09-11T01:38:39.773Z,21.38
2016-09-11T01:39:35.693Z,21.39
2016-09-11T01:40:33.087Z,21.51
2016-09-11T01:41:00.626Z,21.53
2016-09-11T01:41:27.097Z,21.64
2016-09-11T01:41:52.640Z,21.74
2016-09-11T01:42:20.131Z,21.79
2016-09-11T01:42:42.059Z,21.90
2016-09-11T01:43:30.363Z,22.23
2016-09-11T01:43:57.816Z,22.33
2016-09-11T01:44:19.545Z,22.38
2016-09-11T01:44:47.042Z,22.52
2016-09-11T01:45:09.823Z,22.61
2016-09-11T01:45:31.674Z,22.58
2016-09-11T01:45:58.162Z,22.34
2016-09-11T01:46:28.547Z,21.95
2016-09-11T01:46:53.970Z,21.72
2016-09-11T01:47:18.630Z,21.52
2016-09-11T01:48:18.909Z,21.68
2016-09-11T01:48:45.398Z,21.91
2016-09-11T01:49:38.208Z,22.11
2016-09-11T01:50:07.413Z,22.09
2016-09-11T01:50:36.780Z,21.83
2016-09-11T01:51:04.320Z,21.65
2016-09-11T01:51:27.038Z,21.63
2016-09-11T01:51:50.796Z,21.48
2016-09-11T01:52:17.286Z,21.56
2016-09-11T01:53:17.702Z,21.67
2016-09-11T01:55:09.516Z,21.55
2016-09-11T01:55:36.025Z,21.39
2016-09-11T01:55:57.754Z,21.36
2016-09-11T01:56:22.492Z,21.37
2016-09-11T01:56:44.230Z,21.43
2016-09-11T01:57:15.622Z,21.45
2016-09-11T01:57:37.350Z,21.45
2016-09-11T01:58:08.618Z,21.76
2016-09-11T01:58:30.437Z,21.84
2016-09-11T01:59:24.179Z,22.22
2016-09-11T01:59:47.930Z,22.24
2016-09-11T02:00:12.627Z,22.11
2016-09-11T02:00:39.117Z,21.88
2016-09-11T02:01:06.692Z,21.82
2016-09-11T02:02:06.454Z,21.77
2016-09-11T02:03:03.835Z,21.79
2016-09-11T02:03:28.116Z,22.02
2016-09-11T02:04:54.187Z,22.42
2016-09-11T02:05:20.502Z,22.53
2016-09-11T02:05:44.235Z,22.38
2016-09-11T02:06:10.592Z,22.23
2016-09-11T02:07:04.492Z,21.57
2016-09-11T02:07:28.217Z,21.31
2016-09-11T02:08:00.298Z,21.22
2016-09-11T02:08:26.848Z,21.26
2016-09-11T02:09:15.269Z,21.51
2016-09-11T02:09:41.750Z,21.50
2016-09-11T02:10:05.598Z,21.59
2016-09-11T02:10:28.310Z,21.62
2016-09-11T02:11:17.538Z,21.90
2016-09-11T02:11:40.311Z,21.89
2016-09-11T02:12:03.036Z,21.64
2016-09-11T02:12:32.179Z,21.52
2016-09-11T02:12:59.698Z,21.42
2016-09-11T02:14:16.985Z,21.24
2016-09-11T02:14:38.726Z,21.23
2016-09-11T02:15:31.730Z,21.46
2016-09-11T02:16:20.966Z,21.42
2016-09-11T02:16:42.691Z,21.40
2016-09-11T02:17:08.261Z,21.25
2016-09-11T02:17:35.771Z,21.20
2016-09-11T02:18:58.269Z,21.24
2016-09-11T02:19:27.308Z,21.24
2016-09-11T02:19:50.062Z,21.23
2016-09-11T02:20:14.768Z,21.29
2016-09-11T02:20:39.152Z,21.18
2016-09-11T02:21:10.420Z,21.12
2016-09-11T02:21:36.909Z,21.01
2016-09-11T02:22:03.407Z,20.92
2016-09-11T02:22:25.139Z,20.86
2016-09-11T02:22:48.856Z,20.90
2016-09-11T02:23:18.244Z,21.02
2016-09-11T02:23:42.550Z,21.01
2016-09-11T02:24:21.563Z,21.20
2016-09-11T02:24:51.289Z,21.30
2016-09-11T02:25:13.002Z,21.35
2016-09-11T02:25:35.769Z,21.49
2016-09-11T02:25:57.473Z,21.62
2016-09-11T02:26:28.726Z,21.78
2016-09-11T02:26:56.560Z,21.86
2016-09-11T02:27:25.459Z,22.01
2016-09-11T02:27:47.192Z,22.14
2016-09-11T02:28:09.286Z,22.27
2016-09-11T02:28:30.905Z,22.29
2016-09-11T02:29:24.899Z,22.33
2016-09-11T02:29:51.993Z,22.08
2016-09-11T02:30:49.742Z,21.58
2016-09-11T02:31:16.237Z,21.43
2016-09-11T02:31:42.734Z,21.43
2016-09-11T02:32:07.302Z,21.42
2016-09-11T02:32:56.552Z,21.38
2016-09-11T02:33:19.280Z,21.39
2016-09-11T02:33:43.908Z,21.48
2016-09-11T02:34:05.826Z,21.72
2016-09-11T02:34:27.546Z,21.86
2016-09-11T02:34:49.280Z,22.04
2016-09-11T02:35:21.561Z,22.18
2016-09-11T02:35:48.093Z,22.13
2016-09-11T02:36:15.695Z,21.90
2016-09-11T02:36:41.039Z,21.80
2016-09-11T02:37:11.927Z,21.92
2016-09-11T02:38:01.153Z,22.03
2016-09-11T02:38:22.867Z,22.06
2016-09-11T02:38:45.642Z,21.85
2016-09-11T02:39:12.122Z,21.63
2016-09-11T02:39:39.427Z,21.64
2016-09-11T02:40:03.921Z,21.70
2016-09-11T02:40:34.230Z,21.58
2016-09-11T02:40:58.599Z,21.45
2016-09-11T02:41:20.331Z,21.36
2016-09-11T02:41:42.088Z,21.33
2016-09-11T02:43:01.227Z,21.49
2016-09-11T02:43:22.945Z,21.70
2016-09-11T02:43:44.688Z,21.87
2016-09-11T02:44:14.025Z,22.07
2016-09-11T02:44:36.751Z,22.27
2016-09-11T02:45:00.499Z,22.35
2016-09-11T02:46:48.719Z,22.47
2016-09-11T02:47:37.395Z,22.56
2016-09-11T02:48:26.666Z,22.57
2016-09-11T02:48:53.157Z,22.38
2016-09-11T02:49:15.881Z,22.24
2016-09-11T02:49:38.604Z,22.07
2016-09-11T02:50:07.767Z,21.99
2016-09-11T02:51:31.862Z,21.89
2016-09-11T02:52:00.903Z,21.99
2016-09-11T02:52:29.152Z,22.12
2016-09-11T02:52:55.593Z,22.29
2016-09-11T02:53:26.865Z,22.36
2016-09-11T02:53:48.588Z,22.30
2016-09-11T02:54:10.340Z,22.17
2016-09-11T02:54:34.057Z,22.10
2016-09-11T02:54:55.795Z,22.09
2016-09-11T02:55:22.284Z,22.17
2016-09-11T02:55:48.778Z,22.15
2016-09-11T02:56:10.525Z,22.09
2016-09-11T02:56:32.236Z,22.00
2016-09-11T02:57:26.251Z,21.84
2016-09-11T02:57:47.974Z,21.83
2016-09-11T02:58:36.270Z,21.90
2016-09-11T02:59:27.446Z,22.01
2016-09-11T02:59:50.180Z,22.00
2016-09-11T03:00:17.680Z,22.03
2016-09-11T03:00:44.189Z,22.20
2016-09-11T03:01:10.873Z,22.34
2016-09-11T03:02:03.846Z,22.11
2016-09-11T03:02:31.341Z,22.05
2016-09-11T03:03:22.258Z,21.74
2016-09-11T03:03:44.109Z,21.76
2016-09-11T03:04:07.839Z,21.88
2016-09-11T03:04:32.179Z,21.98
2016-09-11T03:04:53.923Z,22.03
2016-09-11T03:05:15.649Z,22.14
2016-09-11T03:05:37.363Z,22.25
2016-09-11T03:06:03.025Z,22.25
2016-09-11T03:06:24.722Z,22.22
2016-09-11T03:06:46.530Z,22.25
2016-09-11T03:07:13.047Z,22.16
2016-09-11T03:07:39.535Z,22.25
2016-09-11T03:08:32.585Z,22.09
2016-09-11T03:09:03.833Z,22.02
2016-09-11T03:09:28.336Z,21.99
2016-09-11T03:09:50.083Z,21.97
2016-09-11T03:10:19.043Z,22.09
2016-09-11T03:10:47.885Z,22.32
2016-09-11T03:11:14.383Z,22.22
2016-09-11T03:12:02.606Z,22.08
2016-09-11T03:12:24.346Z,21.92
2016-09-11T03:13:12.584Z,21.82
2016-09-11T03:13:37.289Z,21.84
2016-09-11T03:14:35.882Z,21.58
2016-09-11T03:15:28.879Z,21.68
2016-09-11T03:16:31.041Z,21.59
2016-09-11T03:16:55.638Z,21.51
2016-09-11T03:17:44.007Z,21.60
2016-09-11T03:18:05.736Z,21.67
2016-09-11T03:18:27.465Z,21.62
2016-09-11T03:18:53.966Z,21.56
2016-09-11T03:19:20.474Z,21.62
2016-09-11T03:19:42.208Z,21.56
2016-09-11T03:20:08.703Z,21.53
2016-09-11T03:20:33.263Z,21.58
2016-09-11T03:20:59.771Z,21.63
2016-09-11T03:21:21.556Z,21.75
2016-09-11T03:21:45.753Z,21.88
2016-09-11T03:22:34.941Z,22.06
2016-09-11T03:23:32.726Z,22.01
2016-09-11T03:23:54.462Z,21.91
2016-09-11T03:24:23.616Z,21.86
2016-09-11T03:24:50.111Z,21.76
2016-09-11T03:25:14.688Z,21.70
2016-09-11T03:25:37.434Z,21.78
2016-09-11T03:26:03.933Z,21.87
2016-09-11T03:27:07.968Z,22.25
2016-09-11T03:27:30.711Z,22.33
2016-09-11T03:27:57.285Z,22.39
2016-09-11T03:28:29.600Z,22.40
2016-09-11T03:28:51.292Z,22.28
2016-09-11T03:30:20.839Z,21.97
2016-09-11T03:30:48.344Z,21.98
2016-09-11T03:31:14.833Z,22.03
2016-09-11T03:31:44.233Z,21.98
2016-09-11T03:33:43.345Z,22.06
2016-09-11T03:34:08.019Z,22.11
2016-09-11T03:34:37.456Z,22.22
2016-09-11T03:35:09.728Z,22.29
2016-09-11T03:35:31.600Z,22.32
2016-09-11T03:35:58.515Z,22.33
2016-09-11T03:36:25.041Z,22.33
2016-09-11T03:36:48.728Z,22.14
2016-09-11T03:37:12.825Z,21.98
2016-09-11T03:37:34.509Z,21.87
2016-09-11T03:38:02.014Z,21.71
2016-09-11T03:38:23.737Z,21.63
2016-09-11T03:38:45.475Z,21.60
2016-09-11T03:39:07.193Z,21.58
2016-09-11T03:39:37.519Z,21.48
2016-09-11T03:39:59.309Z,21.50
2016-09-11T03:40:26.883Z,21.40
2016-09-11T03:40:49.674Z,21.28
2016-09-11T03:41:16.149Z,21.35
2016-09-11T03:41:37.821Z,21.36
2016-09-11T03:42:10.153Z,21.37
2016-09-11T03:42:37.604Z,21.43
2016-09-11T03:43:01.904Z,21.39
2016-09-11T03:43:28.387Z,21.42
2016-09-11T03:44:21.395Z,21.58
2016-09-11T03:44:44.136Z,21.65
2016-09-11T03:45:05.850Z,21.76
2016-09-11T03:45:27.577Z,21.78
2016-09-11T03:46:58.166Z,21.48
2016-09-11T03:47:20.893Z,21.53
2016-09-11T03:47:45.233Z,21.54
2016-09-11T03:48:16.499Z,21.52
2016-09-11T03:49:09.504Z,21.39
2016-09-11T03:49:31.254Z,21.37
2016-09-11T03:49:53.974Z,21.31
2016-09-11T03:50:23.411Z,21.26
2016-09-11T03:50:45.147Z,21.25
2016-09-11T03:51:16.416Z,21.36
2016-09-11T03:51:38.155Z,21.39
2016-09-11T03:52:03.782Z,21.46
2016-09-11T03:53:33.420Z,21.64
2016-09-11T03:54:02.491Z,21.78
2016-09-11T03:54:27.123Z,21.90
2016-09-11T03:54:49.907Z,22.02
2016-09-11T03:55:12.634Z,22.13
2016-09-11T03:55:35.369Z,21.93
2016-09-11T03:56:23.617Z,21.83
2016-09-11T03:56:45.327Z,22.01
2016-09-11T03:57:37.233Z,22.17
2016-09-11T03:57:59.964Z,22.04
2016-09-11T03:58:23.721Z,21.96
2016-09-11T03:58:48.297Z,21.97
2016-09-11T03:59:10.237Z,21.96
2016-09-11T03:59:39.682Z,21.92
2016-09-11T04:00:04.459Z,21.85
2016-09-11T04:00:26.064Z,21.79
2016-09-11T04:01:23.641Z,21.63
2016-09-11T04:02:47.942Z,21.36
2016-09-11T04:03:16.920Z,21.40
2016-09-11T04:03:43.439Z,21.44
2016-09-11T04:04:31.661Z,21.50
2016-09-11T04:04:58.208Z,21.46
2016-09-11T04:05:27.190Z,21.56
2016-09-11T04:05:58.454Z,21.57
2016-09-11T04:06:30.547Z,21.64
2016-09-11T04:06:57.034Z,21.70
2016-09-11T04:07:26.378Z,21.82
2016-09-11T04:07:51.035Z,21.99
2016-09-11T04:08:17.491Z,22.10
2016-09-11T04:08:39.224Z,22.16
2016-09-11T04:09:01.988Z,22.12
2016-09-11T04:09:50.189Z,22.19
2016-09-11T04:10:44.457Z,22.36
2016-09-11T04:11:08.794Z,22.30
2016-09-11T04:11:34.051Z,22.22
2016-09-11T04:12:00.371Z,22.06
2016-09-11T04:12:54.214Z,22.03
2016-09-11T04:13:44.716Z,21.93
2016-09-11T04:14:09.398Z,21.75
2016-09-11T04:14:32.173Z,21.66
2016-09-11T04:14:55.984Z,21.73
2016-09-11T04:15:17.795Z,21.83
2016-09-11T04:15:40.649Z,21.89
2016-09-11T04:16:02.362Z,21.98
2016-09-11T04:16:26.668Z,21.96
2016-09-11T04:16:51.018Z,21.93
2016-09-11T04:17:12.749Z,21.98
2016-09-11T04:17:35.481Z,21.94
2016-09-11T04:17:57.228Z,21.85
2016-09-11T04:18:21.802Z,21.82
2016-09-11T04:18:46.301Z,21.73
2016-09-11T04:19:35.388Z,21.75
2016-09-11T04:19:57.110Z,21.69
2016-09-11T04:20:22.474Z,21.64
2016-09-11T04:20:46.758Z,21.52
2016-09-11T04:21:16.228Z,21.44
2016-09-11T04:21:37.970Z,21.42
2016-09-11T04:21:59.693Z,21.41
2016-09-11T04:22:29.161Z,21.37
2016-09-11T04:22:53.549Z,21.35
2016-09-11T04:23:17.814Z,21.34
2016-09-11T04:23:39.565Z,21.37
2016-09-11T04:24:03.417Z,21.39
2016-09-11T04:24:30.768Z,21.39
2016-09-11T04:25:08.121Z,21.38
2016-09-11T04:26:09.018Z,21.30
2016-09-11T04:26:36.525Z,21.31
2016-09-11T04:27:35.305Z,21.20
2016-09-11T04:28:04.512Z,21.16
2016-09-11T04:28:31.015Z,21.17
2016-09-11T04:28:57.513Z,21.16
2016-09-11T04:29:24.569Z,21.16
2016-09-11T04:30:44.873Z,21.03
2016-09-11T04:31:12.416Z,21.04
2016-09-11T04:31:43.680Z,21.04
2016-09-11T04:32:05.406Z,21.25
2016-09-11T04:32:37.676Z,21.24
2016-09-11T04:33:00.413Z,21.19
2016-09-11T04:33:22.138Z,21.17
2016-09-11T04:33:43.865Z,21.22
2016-09-11T04:34:12.988Z,21.28
2016-09-11T04:34:41.478Z,21.41
2016-09-11T04:36:10.500Z,21.59
2016-09-11T04:36:34.207Z,21.68
2016-09-11T04:36:56.931Z,21.78
2016-09-11T04:37:22.496Z,21.86
2016-09-11T04:38:21.564Z,22.00
2016-09-11T04:38:49.107Z,21.97
2016-09-11T04:39:13.377Z,21.98
2016-09-11T04:39:37.667Z,21.98
2016-09-11T04:40:34.378Z,21.86
2016-09-11T04:40:57.117Z,21.83
2016-09-11T04:41:47.974Z,22.02
2016-09-11T04:42:20.831Z,22.10
2016-09-11T04:42:47.644Z,22.03
2016-09-11T04:43:21.559Z,21.91
2016-09-11T04:45:43.427Z,21.58
2016-09-11T04:46:34.393Z,21.40
2016-09-11T04:47:08.519Z,21.49
2016-09-11T04:47:56.745Z,21.37
2016-09-11T04:48:22.288Z,21.30
2016-09-11T04:49:18.205Z,21.31
2016-09-11T04:49:45.715Z,21.31
2016-09-11T04:50:07.459Z,21.36
2016-09-11T04:50:30.186Z,21.46
2016-09-11T04:50:51.916Z,21.59
2016-09-11T04:51:19.264Z,21.67
2016-09-11T04:51:40.979Z,21.80
2016-09-11T04:52:03.706Z,21.86
2016-09-11T04:52:32.960Z,21.89
2016-09-11T04:52:55.708Z,21.78
2016-09-11T04:53:24.979Z,21.77
2016-09-11T04:53:49.283Z,21.79
2016-09-11T04:54:15.789Z,21.62
2016-09-11T04:54:42.108Z,21.39
2016-09-11T04:55:03.841Z,21.18
2016-09-11T04:55:28.118Z,21.03
2016-09-11T04:55:50.852Z,20.92
2016-09-11T04:56:14.589Z,20.82
2016-09-11T04:56:41.072Z,20.74
2016-09-11T04:57:29.290Z,20.74
2016-09-11T04:57:58.764Z,20.79
2016-09-11T04:58:25.254Z,21.03
2016-09-11T04:58:49.951Z,21.13
2016-09-11T04:59:11.686Z,21.27
2016-09-11T04:59:34.410Z,21.27
2016-09-11T04:59:56.128Z,21.39
2016-09-11T05:00:17.891Z,21.41
2016-09-11T05:00:40.630Z,21.45
2016-09-11T05:01:02.381Z,21.56
2016-09-11T05:01:28.874Z,21.61
2016-09-11T05:01:50.605Z,21.56
2016-09-11T05:02:12.374Z,21.40
2016-09-11T05:02:34.083Z,21.25
2016-09-11T05:02:55.818Z,21.24
2016-09-11T05:03:22.519Z,21.14
2016-09-11T05:03:44.240Z,21.14
2016-09-11T05:04:05.968Z,21.13
2016-09-11T05:04:28.713Z,21.17
2016-09-11T05:04:55.200Z,21.26
2016-09-11T05:05:16.919Z,21.27
2016-09-11T05:05:44.416Z,21.30
2016-09-11T05:06:06.144Z,21.26
2016-09-11T05:06:27.871Z,21.17
2016-09-11T05:06:49.596Z,21.12
2016-09-11T05:07:14.298Z,21.09
2016-09-11T05:07:36.022Z,21.19
2016-09-11T05:07:57.875Z,21.27
2016-09-11T05:08:23.340Z,21.28
2016-09-11T05:08:49.837Z,21.08
2016-09-11T05:09:11.565Z,20.95
2016-09-11T05:09:42.022Z,20.85
2016-09-11T05:10:03.767Z,20.83
2016-09-11T05:10:25.523Z,20.84
2016-09-11T05:10:52.016Z,20.82
2016-09-11T05:11:13.734Z,20.87
2016-09-11T05:11:36.464Z,20.93
2016-09-11T05:11:59.213Z,21.13
2016-09-11T05:12:25.715Z,21.32
2016-09-11T05:12:52.221Z,21.46
2016-09-11T05:13:13.959Z,21.55
2016-09-11T05:13:35.680Z,21.62
2016-09-11T05:14:02.180Z,21.60
2016-09-11T05:14:23.924Z,21.55
2016-09-11T05:14:45.660Z,21.57
2016-09-11T05:15:07.389Z,21.54
2016-09-11T05:16:01.408Z,21.59
2016-09-11T05:16:32.690Z,21.54
2016-09-11T05:16:54.422Z,21.46
2016-09-11T05:17:16.156Z,21.32
2016-09-11T05:17:37.894Z,21.21
2016-09-11T05:17:59.668Z,21.06
2016-09-11T05:18:21.407Z,20.92
2016-09-11T05:18:52.669Z,20.74
2016-09-11T05:19:40.899Z,20.84
2016-09-11T05:20:02.637Z,21.00
2016-09-11T05:20:24.367Z,21.08
2016-09-11T05:20:47.104Z,21.12
2016-09-11T05:21:08.842Z,21.17
2016-09-11T05:21:30.570Z,21.19
2016-09-11T05:21:52.308Z,21.21
2016-09-11T05:22:16.724Z,21.24
2016-09-11T05:22:38.378Z,21.27
2016-09-11T05:23:33.395Z,21.34
2016-09-11T05:23:56.131Z,21.39
2016-09-11T05:24:18.845Z,21.41
2016-09-11T05:24:40.585Z,21.17
2016-09-11T05:25:02.318Z,20.99
2016-09-11T05:25:34.613Z,20.68
2016-09-11T05:25:56.340Z,20.70
2016-09-11T05:26:19.065Z,20.75
2016-09-11T05:26:45.561Z,20.75
2016-09-11T05:28:05.082Z,21.22
2016-09-11T05:28:26.809Z,21.31
2016-09-11T05:28:48.543Z,21.30
2016-09-11T05:29:10.458Z,21.29
2016-09-11T05:29:36.957Z,21.26
2016-09-11T05:30:01.149Z,21.30
2016-09-11T05:30:22.864Z,21.44
2016-09-11T05:30:49.377Z,21.40
2016-09-11T05:31:20.656Z,21.47
2016-09-11T05:31:42.582Z,21.39
2016-09-11T05:32:09.091Z,21.33
2016-09-11T05:32:30.819Z,21.33
2016-09-11T05:32:52.551Z,21.42
2016-09-11T05:33:15.285Z,21.37
2016-09-11T05:33:37.031Z,21.32
2016-09-11T05:33:58.736Z,21.26
2016-09-11T05:34:20.463Z,21.12
2016-09-11T05:34:42.205Z,21.13
2016-09-11T05:35:03.924Z,21.20
2016-09-11T05:35:25.674Z,21.21
2016-09-11T05:35:47.427Z,21.28
2016-09-11T05:36:09.181Z,21.26
2016-09-11T05:36:35.005Z,21.30
2016-09-11T05:36:56.829Z,21.34
2016-09-11T05:37:19.555Z,21.27
2016-09-11T05:37:41.280Z,21.25
2016-09-11T05:38:04.131Z,21.28
2016-09-11T05:38:25.862Z,21.36
2016-09-11T05:38:47.589Z,21.37
2016-09-11T05:39:15.078Z,21.30
2016-09-11T05:39:36.810Z,21.31
2016-09-11T05:39:58.528Z,21.17
2016-09-11T05:40:25.026Z,20.92
2016-09-11T05:40:46.796Z,20.84
2016-09-11T05:41:10.528Z,20.87
2016-09-11T05:41:32.266Z,20.77
2016-09-11T05:41:54.089Z,20.83
2016-09-11T05:42:15.837Z,20.82
2016-09-11T05:42:42.332Z,20.85
2016-09-11T05:43:04.166Z,20.91
2016-09-11T05:43:25.910Z,21.10
2016-09-11T05:43:47.648Z,21.12
2016-09-11T05:44:09.383Z,21.16
2016-09-11T05:44:31.124Z,21.17
2016-09-11T05:44:52.854Z,21.11
2016-09-11T05:45:19.354Z,21.06
2016-09-11T05:45:42.086Z,21.14
2016-09-11T05:46:09.587Z,21.28
2016-09-11T05:46:31.334Z,21.29
2016-09-11T05:46:53.187Z,21.44
2016-09-11T05:47:14.902Z,21.56
2016-09-11T05:48:05.709Z,21.43
2016-09-11T05:48:27.439Z,21.49
2016-09-11T05:48:49.154Z,21.32
2016-09-11T05:49:13.587Z,21.08
2016-09-11T05:49:35.315Z,20.90
2016-09-11T05:49:57.049Z,20.76
2016-09-11T05:50:23.542Z,20.60
2016-09-11T05:51:11.782Z,20.61
2016-09-11T05:51:33.504Z,20.62
2016-09-11T05:52:00.010Z,20.62
2016-09-11T05:52:21.731Z,20.61
2016-09-11T05:52:43.485Z,20.67
2016-09-11T05:53:05.296Z,20.75
2016-09-11T05:53:31.792Z,20.88
2016-09-11T05:53:59.286Z,21.10
2016-09-11T05:54:21.018Z,21.28
2016-09-11T05:54:42.752Z,21.44
2016-09-11T05:55:09.267Z,21.61
2016-09-11T05:55:31.015Z,21.69
2016-09-11T05:57:47.201Z,21.48
2016-09-11T05:58:16.425Z,21.44
2016-09-11T05:58:38.163Z,21.33
2016-09-11T05:59:01.972Z,21.31
2016-09-11T05:59:23.721Z,21.25
2016-09-11T05:59:51.219Z,21.23
2016-09-11T06:00:40.483Z,21.03
2016-09-11T06:01:02.221Z,21.00
2016-09-11T06:01:24.957Z,21.06
2016-09-11T06:01:46.823Z,21.03
2016-09-11T06:02:15.824Z,21.01
2016-09-11T06:02:37.552Z,21.03
2016-09-11T06:03:00.291Z,21.13
2016-09-11T06:03:24.041Z,21.33
2016-09-11T06:03:47.789Z,21.50
2016-09-11T06:04:09.511Z,21.57
2016-09-11T06:04:31.261Z,21.58
2016-09-11T06:04:55.971Z,21.66
2016-09-11T06:05:17.837Z,21.70
2016-09-11T06:05:44.326Z,21.81
2016-09-11T06:06:06.071Z,21.81
2016-09-11T06:06:37.340Z,21.84
2016-09-11T06:07:00.064Z,21.81
2016-09-11T06:07:21.825Z,21.84
2016-09-11T06:07:43.684Z,21.89
2016-09-11T06:08:06.573Z,21.91
2016-09-11T06:08:33.088Z,21.89
2016-09-11T06:09:00.583Z,21.77
2016-09-11T06:09:26.204Z,21.80
2016-09-11T06:09:47.933Z,21.84
2016-09-11T06:10:09.651Z,21.79
2016-09-11T06:10:57.907Z,21.83
2016-09-11T06:11:23.444Z,21.84
2016-09-11T06:11:45.188Z,21.75
2016-09-11T06:12:07.169Z,21.56
2016-09-11T06:12:28.885Z,21.43
2016-09-11T06:12:50.635Z,21.31
2016-09-11T06:13:12.404Z,21.26
2016-09-11T06:13:41.500Z,21.30
2016-09-11T06:14:03.282Z,21.32
2016-09-11T06:14:24.986Z,21.40
2016-09-11T06:14:46.751Z,21.39
2016-09-11T06:15:08.542Z,21.43
2016-09-11T06:15:30.269Z,21.54
2016-09-11T06:15:52.046Z,21.61
2016-09-11T06:16:13.742Z,21.71
2016-09-11T06:17:02.040Z,21.93
2016-09-11T06:17:24.945Z,21.95
2016-09-11T06:17:46.531Z,21.98
2016-09-11T06:18:10.728Z,21.89
2016-09-11T06:18:32.401Z,21.97
2016-09-11T06:18:58.912Z,22.00
2016-09-11T06:19:25.418Z,21.94
2016-09-11T06:19:51.915Z,21.97
2016-09-11T06:20:21.024Z,21.84
2016-09-11T06:20:42.758Z,21.86
2016-09-11T06:21:32.043Z,22.05
2016-09-11T06:21:53.760Z,22.02
2016-09-11T06:22:21.261Z,21.91
2016-09-11T06:22:44.016Z,21.94
2016-09-11T06:23:05.796Z,21.92
2016-09-11T06:23:32.308Z,21.99
2016-09-11T06:23:57.713Z,21.98
2016-09-11T06:24:19.503Z,21.91
2016-09-11T06:24:48.951Z,21.83
2016-09-11T06:25:11.779Z,21.61
2016-09-11T06:25:33.543Z,21.50
2016-09-11T06:25:55.271Z,21.41
2016-09-11T06:26:20.845Z,21.40
2016-09-11T06:26:44.594Z,21.55
2016-09-11T06:27:06.317Z,21.73
2016-09-11T06:27:32.820Z,21.79
2016-09-11T06:28:00.510Z,21.86
2016-09-11T06:28:51.795Z,21.85
2016-09-11T06:29:20.689Z,21.87
2016-09-11T06:29:42.490Z,21.93
2016-09-11T06:30:14.800Z,21.89
2016-09-11T06:30:36.536Z,21.89
2016-09-11T06:30:58.270Z,21.90
2016-09-11T06:31:20.993Z,21.95